Kontakt oss PDF Skriv ut

Adresse:
Kjevik flyklubb
4657 Kjevik

E-post:
post@kjevikflyklubb.no

Webmaster
R S Løvland

Kontonummer
Flyleie: 2840.32.05259

Logo

 

 
 
METAR
2019/01/16 08:50 ENCN 160850Z 23012KT 7000 BKN007 07/07 Q0989
TAF
2019/01/16 09:36 TAF TAF ENCN 160800Z 1609/1618 24008KT 7000 -DZ FEW003 BKN010 TEMPO 1609/1613 2000 DZRA OVC003 BECMG 1613/1615 FEW012 BKN025
LN-KFK
Til service
VFR dag
08:13 - 17:02
Brannvakt
Inaktiv
Banner
Banner
Banner
Banner
Banner